sensor_id;sensor_type;location;lat;lon;timestamp;P1;durP1;ratioP1;P2;durP2;ratioP2
23768;SDS011;12064;50.890;5.424;2023-05-07T00:01:38;2.10;;;1.40;;
23768;SDS011;12064;50.890;5.424;2023-05-07T00:10:29;2.38;;;1.60;;
23768;SDS011;12064;50.890;5.424;2023-05-07T00:19:19;1.60;;;1.50;;
23768;SDS011;12064;50.890;5.424;2023-05-07T00:28:10;2.20;;;1.60;;
23768;SDS011;12064;50.890;5.424;2023-05-07T00:37:01;3.27;;;1.50;;
23768;SDS011;12064;50.890;5.424;2023-05-07T00:45:51;1.50;;;1.40;;
23768;SDS011;12064;50.890;5.424;2023-05-07T00:54:45;1.70;;;1.40;;
23768;SDS011;12064;50.890;5.424;2023-05-07T01:03:36;1.50;;;1.40;;
23768;SDS011;12064;50.890;5.424;2023-05-07T01:12:29;1.55;;;1.45;;
23768;SDS011;12064;50.890;5.424;2023-05-07T01:21:23;2.65;;;1.80;;
23768;SDS011;12064;50.890;5.424;2023-05-07T01:30:16;1.65;;;1.50;;
23768;SDS011;12064;50.890;5.424;2023-05-07T01:39:12;2.83;;;1.92;;
23768;SDS011;12064;50.890;5.424;2023-05-07T01:48:03;2.00;;;1.50;;
23768;SDS011;12064;50.890;5.424;2023-05-07T01:56:56;2.05;;;1.67;;
23768;SDS011;12064;50.890;5.424;2023-05-07T02:05:50;1.73;;;1.60;;
23768;SDS011;12064;50.890;5.424;2023-05-07T02:14:40;2.50;;;1.77;;
23768;SDS011;12064;50.890;5.424;2023-05-07T02:23:31;1.55;;;1.45;;
23768;SDS011;12064;50.890;5.424;2023-05-07T02:32:22;1.88;;;1.70;;
23768;SDS011;12064;50.890;5.424;2023-05-07T02:41:13;1.70;;;1.60;;
23768;SDS011;12064;50.890;5.424;2023-05-07T02:50:04;2.83;;;1.45;;
23768;SDS011;12064;50.890;5.424;2023-05-07T02:58:55;2.13;;;1.80;;
23768;SDS011;12064;50.890;5.424;2023-05-07T03:07:45;1.73;;;1.60;;
23768;SDS011;12064;50.890;5.424;2023-05-07T03:16:37;1.85;;;1.63;;
23768;SDS011;12064;50.890;5.424;2023-05-07T03:25:28;1.90;;;1.63;;
23768;SDS011;12064;50.890;5.424;2023-05-07T03:34:21;1.70;;;1.60;;
23768;SDS011;12064;50.890;5.424;2023-05-07T03:43:12;2.17;;;1.88;;
23768;SDS011;12064;50.890;5.424;2023-05-07T03:52:03;1.60;;;1.50;;
23768;SDS011;12064;50.890;5.424;2023-05-07T04:00:54;1.98;;;1.77;;
23768;SDS011;12064;50.890;5.424;2023-05-07T04:09:44;2.27;;;1.50;;
23768;SDS011;12064;50.890;5.424;2023-05-07T04:18:35;2.40;;;1.65;;
23768;SDS011;12064;50.890;5.424;2023-05-07T04:27:25;2.97;;;1.60;;
23768;SDS011;12064;50.890;5.424;2023-05-07T04:36:18;2.83;;;1.67;;
23768;SDS011;12064;50.890;5.424;2023-05-07T04:45:08;3.42;;;1.92;;
23768;SDS011;12064;50.890;5.424;2023-05-07T04:54:00;2.53;;;1.75;;
23768;SDS011;12064;50.890;5.424;2023-05-07T05:02:50;2.83;;;1.70;;
23768;SDS011;12064;50.890;5.424;2023-05-07T05:11:41;1.90;;;1.45;;
23768;SDS011;12064;50.890;5.424;2023-05-07T05:20:35;1.67;;;1.50;;
23768;SDS011;12064;50.890;5.424;2023-05-07T05:29:25;1.67;;;1.58;;
23768;SDS011;12064;50.890;5.424;2023-05-07T05:38:16;2.15;;;1.70;;
23768;SDS011;12064;50.890;5.424;2023-05-07T05:47:07;5.22;;;2.22;;
23768;SDS011;12064;50.890;5.424;2023-05-07T05:55:57;3.17;;;1.70;;
23768;SDS011;12064;50.890;5.424;2023-05-07T06:04:51;3.53;;;1.77;;
23768;SDS011;12064;50.890;5.424;2023-05-07T06:13:42;2.80;;;2.08;;
23768;SDS011;12064;50.890;5.424;2023-05-07T06:22:35;2.72;;;1.90;;
23768;SDS011;12064;50.890;5.424;2023-05-07T06:31:29;5.50;;;4.97;;
23768;SDS011;12064;50.890;5.424;2023-05-07T06:40:23;6.97;;;5.43;;
23768;SDS011;12064;50.890;5.424;2023-05-07T06:49:13;8.40;;;5.60;;
23768;SDS011;12064;50.890;5.424;2023-05-07T06:58:04;7.82;;;5.20;;
23768;SDS011;12064;50.890;5.424;2023-05-07T07:06:55;7.18;;;5.60;;
23768;SDS011;12064;50.890;5.424;2023-05-07T07:15:46;5.32;;;4.82;;
23768;SDS011;12064;50.890;5.424;2023-05-07T07:24:37;6.00;;;5.18;;
23768;SDS011;12064;50.890;5.424;2023-05-07T07:33:28;5.83;;;5.23;;
23768;SDS011;12064;50.890;5.424;2023-05-07T07:42:18;6.83;;;4.90;;
23768;SDS011;12064;50.890;5.424;2023-05-07T07:51:09;7.13;;;5.22;;
23768;SDS011;12064;50.890;5.424;2023-05-07T08:00:02;5.20;;;4.70;;
23768;SDS011;12064;50.890;5.424;2023-05-07T08:08:53;4.88;;;4.45;;
23768;SDS011;12064;50.890;5.424;2023-05-07T08:17:45;6.10;;;4.32;;
23768;SDS011;12064;50.890;5.424;2023-05-07T08:26:35;4.70;;;3.87;;
23768;SDS011;12064;50.890;5.424;2023-05-07T08:35:28;5.15;;;3.22;;
23768;SDS011;12064;50.890;5.424;2023-05-07T08:44:19;4.15;;;3.00;;
23768;SDS011;12064;50.890;5.424;2023-05-07T08:53:13;6.22;;;3.65;;
23768;SDS011;12064;50.890;5.424;2023-05-07T09:02:05;4.65;;;3.38;;
23768;SDS011;12064;50.890;5.424;2023-05-07T09:11:01;4.00;;;3.45;;
23768;SDS011;12064;50.890;5.424;2023-05-07T09:19:52;8.73;;;3.25;;
23768;SDS011;12064;50.890;5.424;2023-05-07T09:28:43;12.98;;;3.67;;
23768;SDS011;12064;50.890;5.424;2023-05-07T09:37:38;9.68;;;4.20;;
23768;SDS011;12064;50.890;5.424;2023-05-07T09:46:30;9.80;;;4.45;;
23768;SDS011;12064;50.890;5.424;2023-05-07T09:55:23;10.40;;;3.95;;
23768;SDS011;12064;50.890;5.424;2023-05-07T10:04:15;12.48;;;4.82;;
23768;SDS011;12064;50.890;5.424;2023-05-07T10:13:06;8.13;;;4.05;;
23768;SDS011;12064;50.890;5.424;2023-05-07T10:22:01;9.70;;;4.40;;
23768;SDS011;12064;50.890;5.424;2023-05-07T10:31:11;8.90;;;4.20;;
23768;SDS011;12064;50.890;5.424;2023-05-07T10:40:06;10.13;;;4.18;;
23768;SDS011;12064;50.890;5.424;2023-05-07T10:57:56;8.32;;;4.10;;
23768;SDS011;12064;50.890;5.424;2023-05-07T11:16:25;8.18;;;3.90;;
23768;SDS011;12064;50.890;5.424;2023-05-07T11:25:18;7.93;;;3.78;;
23768;SDS011;12064;50.890;5.424;2023-05-07T11:34:11;8.57;;;4.00;;
23768;SDS011;12064;50.890;5.424;2023-05-07T11:43:10;8.00;;;3.90;;
23768;SDS011;12064;50.890;5.424;2023-05-07T11:52:01;7.00;;;3.60;;
23768;SDS011;12064;50.890;5.424;2023-05-07T12:00:52;7.57;;;3.85;;
23768;SDS011;12064;50.890;5.424;2023-05-07T12:09:44;7.65;;;3.70;;
23768;SDS011;12064;50.890;5.424;2023-05-07T12:18:36;5.07;;;3.40;;
23768;SDS011;12064;50.890;5.424;2023-05-07T12:27:27;6.05;;;3.42;;
23768;SDS011;12064;50.890;5.424;2023-05-07T12:36:17;6.77;;;3.37;;
23768;SDS011;12064;50.890;5.424;2023-05-07T12:45:11;5.57;;;3.50;;
23768;SDS011;12064;50.890;5.424;2023-05-07T12:54:08;5.53;;;3.33;;
23768;SDS011;12064;50.890;5.424;2023-05-07T13:03:01;5.50;;;3.25;;
23768;SDS011;12064;50.890;5.424;2023-05-07T13:11:55;5.40;;;3.35;;
23768;SDS011;12064;50.890;5.424;2023-05-07T13:20:46;5.57;;;3.27;;
23768;SDS011;12064;50.890;5.424;2023-05-07T13:29:36;5.27;;;3.17;;
23768;SDS011;12064;50.890;5.424;2023-05-07T13:38:27;4.10;;;2.90;;
23768;SDS011;12064;50.890;5.424;2023-05-07T13:47:17;5.33;;;3.20;;
23768;SDS011;12064;50.890;5.424;2023-05-07T13:56:08;4.80;;;3.27;;
23768;SDS011;12064;50.890;5.424;2023-05-07T14:05:00;5.37;;;3.07;;
23768;SDS011;12064;50.890;5.424;2023-05-07T14:13:50;4.10;;;3.25;;
23768;SDS011;12064;50.890;5.424;2023-05-07T14:22:41;3.43;;;3.13;;
23768;SDS011;12064;50.890;5.424;2023-05-07T14:31:31;5.60;;;3.13;;
23768;SDS011;12064;50.890;5.424;2023-05-07T14:40:23;4.28;;;2.85;;
23768;SDS011;12064;50.890;5.424;2023-05-07T14:49:14;4.13;;;3.17;;
23768;SDS011;12064;50.890;5.424;2023-05-07T14:58:07;3.70;;;3.20;;
23768;SDS011;12064;50.890;5.424;2023-05-07T15:06:57;4.40;;;3.08;;
23768;SDS011;12064;50.890;5.424;2023-05-07T15:15:48;4.43;;;3.00;;
23768;SDS011;12064;50.890;5.424;2023-05-07T15:24:39;4.38;;;3.38;;
23768;SDS011;12064;50.890;5.424;2023-05-07T15:33:32;4.50;;;2.90;;
23768;SDS011;12064;50.890;5.424;2023-05-07T15:42:23;4.72;;;3.35;;
23768;SDS011;12064;50.890;5.424;2023-05-07T15:51:14;4.18;;;2.90;;
23768;SDS011;12064;50.890;5.424;2023-05-07T16:00:05;4.30;;;3.08;;
23768;SDS011;12064;50.890;5.424;2023-05-07T16:08:58;3.78;;;2.72;;
23768;SDS011;12064;50.890;5.424;2023-05-07T16:17:49;3.97;;;2.90;;
23768;SDS011;12064;50.890;5.424;2023-05-07T16:26:40;3.33;;;2.60;;
23768;SDS011;12064;50.890;5.424;2023-05-07T16:35:34;3.67;;;2.63;;
23768;SDS011;12064;50.890;5.424;2023-05-07T16:44:25;5.57;;;3.00;;
23768;SDS011;12064;50.890;5.424;2023-05-07T16:53:15;4.10;;;3.00;;
23768;SDS011;12064;50.890;5.424;2023-05-07T17:02:06;3.20;;;2.90;;
23768;SDS011;12064;50.890;5.424;2023-05-07T17:10:56;4.70;;;2.97;;
23768;SDS011;12064;50.890;5.424;2023-05-07T17:19:47;4.10;;;2.70;;
23768;SDS011;12064;50.890;5.424;2023-05-07T17:28:38;4.10;;;2.90;;
23768;SDS011;12064;50.890;5.424;2023-05-07T17:37:30;7.85;;;2.88;;
23768;SDS011;12064;50.890;5.424;2023-05-07T17:46:21;4.53;;;2.55;;
23768;SDS011;12064;50.890;5.424;2023-05-07T17:55:11;3.45;;;2.78;;
23768;SDS011;12064;50.890;5.424;2023-05-07T18:04:02;3.63;;;2.47;;
23768;SDS011;12064;50.890;5.424;2023-05-07T18:12:53;4.35;;;2.63;;
23768;SDS011;12064;50.890;5.424;2023-05-07T18:21:43;4.43;;;2.60;;
23768;SDS011;12064;50.890;5.424;2023-05-07T18:30:34;3.70;;;2.63;;
23768;SDS011;12064;50.890;5.424;2023-05-07T18:39:27;10.18;;;2.83;;
23768;SDS011;12064;50.890;5.424;2023-05-07T18:48:18;6.37;;;2.80;;
23768;SDS011;12064;50.890;5.424;2023-05-07T18:57:09;5.47;;;2.80;;
23768;SDS011;12064;50.890;5.424;2023-05-07T19:06:02;4.82;;;2.60;;
23768;SDS011;12064;50.890;5.424;2023-05-07T19:14:54;5.97;;;2.70;;
23768;SDS011;12064;50.890;5.424;2023-05-07T19:23:45;5.32;;;3.00;;
23768;SDS011;12064;50.890;5.424;2023-05-07T19:32:36;4.57;;;2.47;;
23768;SDS011;12064;50.890;5.424;2023-05-07T19:41:27;4.47;;;2.50;;
23768;SDS011;12064;50.890;5.424;2023-05-07T19:50:18;3.85;;;2.67;;
23768;SDS011;12064;50.890;5.424;2023-05-07T19:59:09;4.25;;;2.45;;
23768;SDS011;12064;50.890;5.424;2023-05-07T20:07:59;4.07;;;2.55;;
23768;SDS011;12064;50.890;5.424;2023-05-07T20:16:51;3.80;;;2.45;;
23768;SDS011;12064;50.890;5.424;2023-05-07T20:25:42;3.58;;;2.60;;
23768;SDS011;12064;50.890;5.424;2023-05-07T20:34:32;3.20;;;2.60;;
23768;SDS011;12064;50.890;5.424;2023-05-07T20:43:23;2.53;;;2.33;;
23768;SDS011;12064;50.890;5.424;2023-05-07T20:52:13;3.53;;;2.43;;
23768;SDS011;12064;50.890;5.424;2023-05-07T21:01:04;2.97;;;2.60;;
23768;SDS011;12064;50.890;5.424;2023-05-07T21:09:55;3.70;;;2.30;;
23768;SDS011;12064;50.890;5.424;2023-05-07T21:18:47;2.90;;;2.50;;
23768;SDS011;12064;50.890;5.424;2023-05-07T21:27:39;4.28;;;2.40;;
23768;SDS011;12064;50.890;5.424;2023-05-07T21:36:30;3.25;;;2.33;;
23768;SDS011;12064;50.890;5.424;2023-05-07T21:45:20;4.10;;;2.50;;
23768;SDS011;12064;50.890;5.424;2023-05-07T21:54:11;3.72;;;2.67;;
23768;SDS011;12064;50.890;5.424;2023-05-07T22:03:03;2.72;;;2.25;;
23768;SDS011;12064;50.890;5.424;2023-05-07T22:11:53;2.67;;;2.33;;
23768;SDS011;12064;50.890;5.424;2023-05-07T22:20:44;3.35;;;2.47;;
23768;SDS011;12064;50.890;5.424;2023-05-07T22:29:35;3.27;;;2.17;;
23768;SDS011;12064;50.890;5.424;2023-05-07T22:38:26;3.17;;;2.50;;
23768;SDS011;12064;50.890;5.424;2023-05-07T22:47:18;2.60;;;2.30;;
23768;SDS011;12064;50.890;5.424;2023-05-07T22:56:08;2.97;;;2.40;;
23768;SDS011;12064;50.890;5.424;2023-05-07T23:04:59;3.28;;;2.40;;
23768;SDS011;12064;50.890;5.424;2023-05-07T23:13:53;2.92;;;2.40;;
23768;SDS011;12064;50.890;5.424;2023-05-07T23:22:46;2.45;;;2.20;;
23768;SDS011;12064;50.890;5.424;2023-05-07T23:31:37;3.20;;;2.20;;
23768;SDS011;12064;50.890;5.424;2023-05-07T23:40:27;2.60;;;2.33;;
23768;SDS011;12064;50.890;5.424;2023-05-07T23:49:18;2.80;;;2.20;;
23768;SDS011;12064;50.890;5.424;2023-05-07T23:58:08;2.38;;;2.17;;
